createdAt,value
2023-04-25T00:01:37.200Z,7.43
2023-04-25T00:04:40.741Z,7.35
2023-04-25T00:07:43.828Z,8.57
2023-04-25T00:10:46.830Z,8.67
2023-04-25T00:13:50.983Z,8.57
2023-04-25T00:16:53.772Z,7.38
2023-04-25T00:19:56.992Z,8.65
2023-04-25T00:22:59.937Z,10.50
2023-04-25T00:26:03.206Z,8.80
2023-04-25T00:29:06.185Z,8.88
2023-04-25T00:32:08.806Z,9.07
2023-04-25T00:35:11.838Z,10.43
2023-04-25T00:38:14.868Z,11.15
2023-04-25T00:41:17.564Z,8.30
2023-04-25T00:44:20.977Z,7.05
2023-04-25T00:47:24.435Z,7.75
2023-04-25T00:50:27.295Z,7.53
2023-04-25T00:53:31.388Z,6.38
2023-04-25T00:56:34.139Z,5.93
2023-04-25T00:59:37.628Z,7.10
2023-04-25T01:02:41.515Z,7.77
2023-04-25T01:05:44.980Z,7.65
2023-04-25T01:08:48.809Z,5.30
2023-04-25T01:11:52.180Z,5.07
2023-04-25T01:14:55.436Z,5.38
2023-04-25T01:17:59.403Z,6.30
2023-04-25T01:21:12.130Z,4.03
2023-04-25T01:24:15.554Z,5.38
2023-04-25T01:27:19.114Z,8.80
2023-04-25T01:30:22.995Z,4.30
2023-04-25T01:33:25.672Z,4.77
2023-04-25T01:36:29.629Z,8.10
2023-04-25T01:39:32.818Z,5.40
2023-04-25T01:42:37.618Z,4.33
2023-04-25T01:45:43.533Z,4.68
2023-04-25T01:48:47.651Z,5.60
2023-04-25T01:51:50.604Z,5.40
2023-04-25T01:54:55.561Z,5.53
2023-04-25T01:57:58.069Z,6.72
2023-04-25T02:01:11.962Z,5.07
2023-04-25T02:04:23.216Z,6.57
2023-04-25T02:07:27.587Z,6.28
2023-04-25T02:10:30.553Z,3.50
2023-04-25T02:13:52.101Z,4.53
2023-04-25T02:17:13.771Z,4.93
2023-04-25T02:20:21.301Z,6.00
2023-04-25T02:23:23.958Z,4.25
2023-04-25T02:26:27.055Z,5.30
2023-04-25T02:29:30.644Z,8.13
2023-04-25T02:32:35.565Z,6.38
2023-04-25T02:35:38.661Z,4.97
2023-04-25T02:38:41.671Z,6.82
2023-04-25T02:41:44.614Z,5.07
2023-04-25T02:44:47.212Z,4.43
2023-04-25T02:47:49.946Z,7.45
2023-04-25T02:50:55.418Z,5.90
2023-04-25T02:53:58.387Z,6.88
2023-04-25T02:57:02.206Z,8.90
2023-04-25T03:00:09.379Z,7.78
2023-04-25T03:03:12.463Z,7.35
2023-04-25T03:06:16.529Z,6.87
2023-04-25T03:09:19.376Z,6.60
2023-04-25T03:12:22.280Z,6.75
2023-04-25T03:15:24.940Z,6.60
2023-04-25T03:18:29.331Z,6.50
2023-04-25T03:21:33.809Z,6.15
2023-04-25T03:24:38.276Z,10.57
2023-04-25T03:27:41.161Z,11.15
2023-04-25T03:30:43.878Z,8.23
2023-04-25T03:33:47.206Z,10.13
2023-04-25T03:36:49.767Z,6.60
2023-04-25T03:39:52.708Z,12.32
2023-04-25T03:42:55.757Z,10.48
2023-04-25T03:45:59.222Z,10.20
2023-04-25T03:49:02.618Z,7.20
2023-04-25T03:52:23.007Z,8.18
2023-04-25T03:55:25.993Z,12.63
2023-04-25T03:58:29.604Z,9.00
2023-04-25T04:01:32.242Z,10.68
2023-04-25T04:04:35.469Z,9.15
2023-04-25T04:07:41.079Z,11.63
2023-04-25T04:10:48.479Z,7.30
2023-04-25T04:13:51.903Z,9.57
2023-04-25T04:16:54.668Z,10.13
2023-04-25T04:19:58.484Z,11.95
2023-04-25T04:23:02.434Z,10.48
2023-04-25T04:26:08.235Z,9.23
2023-04-25T04:29:29.818Z,9.88
2023-04-25T04:32:41.366Z,11.75
2023-04-25T04:35:44.370Z,10.98
2023-04-25T04:38:47.797Z,15.60
2023-04-25T04:41:59.404Z,12.65
2023-04-25T04:45:28.702Z,11.02
2023-04-25T04:48:50.217Z,10.57
2023-04-25T04:52:15.869Z,10.23
2023-04-25T04:55:51.121Z,11.98
2023-04-25T04:59:08.818Z,13.23
2023-04-25T05:02:19.195Z,14.20
2023-04-25T05:05:47.865Z,10.73
2023-04-25T05:09:20.279Z,8.23
2023-04-25T05:12:45.993Z,13.33
2023-04-25T05:16:05.699Z,15.35
2023-04-25T05:19:24.535Z,9.90
2023-04-25T05:22:47.304Z,10.23
2023-04-25T05:25:55.417Z,9.18
2023-04-25T05:29:08.524Z,12.70
2023-04-25T05:32:33.784Z,8.32
2023-04-25T05:35:36.822Z,8.02
2023-04-25T05:38:39.463Z,8.25
2023-04-25T05:42:14.470Z,9.80
2023-04-25T05:45:39.941Z,10.40
2023-04-25T05:49:03.816Z,8.15
2023-04-25T05:52:17.521Z,12.10
2023-04-25T05:55:27.087Z,9.83
2023-04-25T05:58:30.083Z,10.48
2023-04-25T06:01:33.726Z,10.10
2023-04-25T06:04:36.815Z,12.73
2023-04-25T06:07:39.645Z,9.95
2023-04-25T06:10:42.363Z,11.70
2023-04-25T06:13:45.297Z,8.18
2023-04-25T06:16:48.958Z,11.10
2023-04-25T06:19:51.668Z,7.20
2023-04-25T06:22:54.981Z,8.38
2023-04-25T06:26:04.446Z,9.97
2023-04-25T06:29:08.248Z,11.60
2023-04-25T06:32:11.264Z,12.80
2023-04-25T06:35:14.162Z,8.15
2023-04-25T06:38:17.171Z,7.75
2023-04-25T06:41:23.545Z,9.95
2023-04-25T06:44:27.322Z,6.75
2023-04-25T06:47:30.843Z,9.87
2023-04-25T06:50:34.898Z,6.95
2023-04-25T06:53:37.667Z,8.82
2023-04-25T06:56:43.356Z,16.20
2023-04-25T06:59:50.414Z,12.38
2023-04-25T07:02:53.241Z,10.20
2023-04-25T07:05:56.264Z,8.57
2023-04-25T07:08:59.950Z,6.30
2023-04-25T07:12:02.699Z,9.00
2023-04-25T07:15:07.281Z,10.30
2023-04-25T07:18:11.872Z,10.87
2023-04-25T07:21:14.820Z,10.73
2023-04-25T07:24:19.466Z,7.10
2023-04-25T07:27:23.735Z,11.13
2023-04-25T07:30:31.755Z,7.93
2023-04-25T07:33:35.107Z,6.75
2023-04-25T07:36:37.855Z,9.63
2023-04-25T07:39:40.658Z,6.00
2023-04-25T07:42:43.317Z,8.32
2023-04-25T07:45:48.084Z,6.32
2023-04-25T07:48:53.182Z,7.50
2023-04-25T07:51:55.926Z,7.80
2023-04-25T07:54:59.780Z,6.80
2023-04-25T07:58:11.100Z,6.73
2023-04-25T08:01:16.246Z,3.03
2023-04-25T08:04:30.034Z,1.25
2023-04-25T08:07:41.926Z,1.35
2023-04-25T08:10:45.386Z,0.93
2023-04-25T08:13:49.489Z,0.52
2023-04-25T08:16:52.128Z,0.60
2023-04-25T08:19:56.545Z,0.47
2023-04-25T08:23:04.253Z,0.98
2023-04-25T08:26:22.505Z,0.20
2023-04-25T08:29:27.040Z,1.10
2023-04-25T08:32:30.936Z,1.98
2023-04-25T08:35:51.473Z,0.32
2023-04-25T08:38:55.534Z,1.25
2023-04-25T08:41:59.038Z,0.17
2023-04-25T08:45:07.133Z,0.30
2023-04-25T08:48:15.976Z,0.25
2023-04-25T08:51:26.045Z,0.30
2023-04-25T08:54:35.005Z,0.20
2023-04-25T08:57:39.394Z,0.13
2023-04-25T09:00:42.730Z,0.00
2023-04-25T09:03:48.520Z,0.10
2023-04-25T09:06:51.581Z,0.10
2023-04-25T09:09:54.445Z,0.25
2023-04-25T09:13:09.955Z,0.90
2023-04-25T09:16:31.702Z,0.30
2023-04-25T09:20:09.190Z,0.03
2023-04-25T09:23:12.352Z,0.10
2023-04-25T09:26:18.034Z,0.88
2023-04-25T09:29:30.460Z,1.25
2023-04-25T09:34:13.691Z,0.43
2023-04-25T09:37:31.467Z,0.32
2023-04-25T09:41:12.433Z,0.30
2023-04-25T09:44:25.851Z,0.28
2023-04-25T09:47:30.245Z,0.50
2023-04-25T09:50:33.124Z,0.85
2023-04-25T09:53:47.373Z,0.32
2023-04-25T09:57:13.597Z,0.53
2023-04-25T10:00:17.486Z,0.50
2023-04-25T10:03:21.690Z,0.52
2023-04-25T10:06:35.827Z,0.80
2023-04-25T10:09:40.918Z,0.38
2023-04-25T10:12:45.358Z,0.70
2023-04-25T10:15:48.405Z,0.73
2023-04-25T10:18:51.914Z,0.45
2023-04-25T10:22:05.721Z,1.45
2023-04-25T10:25:09.520Z,0.10
2023-04-25T10:28:12.151Z,0.57
2023-04-25T10:31:17.691Z,0.10
2023-04-25T10:34:24.625Z,0.30
2023-04-25T10:37:27.145Z,0.20
2023-04-25T10:40:30.215Z,0.20
2023-04-25T10:43:32.721Z,0.75
2023-04-25T10:46:37.179Z,0.28
2023-04-25T10:49:43.654Z,0.40
2023-04-25T10:52:46.290Z,0.20
2023-04-25T10:55:52.841Z,0.40
2023-04-25T10:59:21.461Z,0.27
2023-04-25T11:02:29.299Z,0.13
2023-04-25T11:05:55.078Z,0.65
2023-04-25T11:09:03.141Z,0.10
2023-04-25T11:12:08.348Z,0.75
2023-04-25T11:15:11.402Z,0.65
2023-04-25T11:18:17.814Z,0.68
2023-04-25T11:21:21.275Z,1.05
2023-04-25T11:24:28.726Z,1.27
2023-04-25T11:27:31.546Z,0.63
2023-04-25T11:30:34.303Z,2.47
2023-04-25T11:33:37.204Z,0.50
2023-04-25T11:36:40.101Z,0.20
2023-04-25T11:39:47.337Z,0.10
2023-04-25T11:42:50.106Z,0.22
2023-04-25T11:45:53.523Z,0.28
2023-04-25T11:48:58.552Z,0.10
2023-04-25T11:52:01.981Z,2.70
2023-04-25T11:55:31.397Z,2.90
2023-04-25T11:58:33.856Z,0.77
2023-04-25T12:01:38.855Z,1.20
2023-04-25T12:04:42.364Z,0.50
2023-04-25T12:07:45.685Z,1.67
2023-04-25T12:10:48.898Z,0.20
2023-04-25T12:13:54.343Z,0.20
2023-04-25T12:16:59.575Z,0.20
2023-04-25T12:20:16.560Z,0.50
2023-04-25T12:23:28.618Z,1.85
2023-04-25T12:27:03.368Z,1.92
2023-04-25T12:30:08.164Z,2.08
2023-04-25T12:33:11.397Z,1.00
2023-04-25T12:36:14.782Z,1.23
2023-04-25T12:39:20.999Z,2.15
2023-04-25T12:42:23.545Z,0.10
2023-04-25T12:45:26.170Z,1.77
2023-04-25T12:48:28.788Z,1.15
2023-04-25T12:51:31.669Z,0.60
2023-04-25T12:54:36.582Z,0.63
2023-04-25T12:57:39.178Z,0.85
2023-04-25T13:00:42.262Z,1.35
2023-04-25T13:03:45.718Z,0.50
2023-04-25T13:06:48.743Z,0.63
2023-04-25T13:09:51.332Z,0.63
2023-04-25T13:12:53.946Z,0.93
2023-04-25T13:15:56.624Z,0.45
2023-04-25T13:19:00.221Z,0.30
2023-04-25T13:22:05.337Z,0.65
2023-04-25T13:25:09.297Z,0.38
2023-04-25T13:28:11.903Z,0.82
2023-04-25T13:31:14.586Z,0.20
2023-04-25T13:34:17.201Z,0.70
2023-04-25T13:37:19.751Z,0.47
2023-04-25T13:40:24.038Z,0.60
2023-04-25T13:43:27.949Z,0.93
2023-04-25T13:46:45.496Z,0.17
2023-04-25T13:49:48.518Z,0.25
2023-04-25T13:52:51.174Z,0.20
2023-04-25T13:55:53.722Z,0.85
2023-04-25T13:58:56.620Z,0.40
2023-04-25T14:01:59.898Z,0.50
2023-04-25T14:05:03.610Z,0.00
2023-04-25T14:08:08.162Z,1.30
2023-04-25T14:11:10.932Z,0.65
2023-04-25T14:14:16.727Z,0.50
2023-04-25T14:17:22.667Z,0.82
2023-04-25T14:20:25.304Z,1.13
2023-04-25T14:23:28.333Z,0.85
2023-04-25T14:26:31.234Z,1.02
2023-04-25T14:29:34.380Z,3.00
2023-04-25T14:32:36.967Z,0.90
2023-04-25T14:35:39.838Z,0.27
2023-04-25T14:38:42.471Z,0.30
2023-04-25T14:41:45.558Z,0.98
2023-04-25T14:44:48.273Z,0.67
2023-04-25T14:47:51.164Z,0.40
2023-04-25T14:50:53.996Z,0.40
2023-04-25T14:53:56.753Z,0.57
2023-04-25T14:56:59.589Z,0.40
2023-04-25T15:00:03.017Z,0.77
2023-04-25T15:03:08.799Z,0.30
2023-04-25T15:06:12.008Z,1.73
2023-04-25T15:09:14.873Z,0.55
2023-04-25T15:12:17.657Z,0.52
2023-04-25T15:18:28.148Z,1.15
2023-04-25T15:21:32.020Z,3.05
2023-04-25T15:24:34.855Z,1.27
2023-04-25T15:27:41.778Z,1.20
2023-04-25T15:30:45.119Z,1.48
2023-04-25T15:33:47.792Z,1.63
2023-04-25T15:36:50.514Z,2.33
2023-04-25T15:40:13.622Z,1.15
2023-04-25T15:43:17.495Z,1.60
2023-04-25T15:46:20.282Z,0.40
2023-04-25T15:49:23.437Z,1.55
2023-04-25T15:52:26.173Z,0.88
2023-04-25T15:55:29.523Z,0.98
2023-04-25T15:58:32.522Z,0.80
2023-04-25T16:01:35.318Z,0.47
2023-04-25T16:04:38.793Z,1.30
2023-04-25T16:07:42.921Z,0.37
2023-04-25T16:10:45.573Z,1.80
2023-04-25T16:13:48.536Z,1.60
2023-04-25T16:16:51.178Z,0.50
2023-04-25T16:19:53.905Z,0.82
2023-04-25T16:22:56.658Z,0.50
2023-04-25T16:25:59.587Z,0.60
2023-04-25T16:29:05.066Z,1.58
2023-04-25T16:32:08.339Z,1.42
2023-04-25T16:35:10.949Z,0.90
2023-04-25T16:38:13.539Z,2.33
2023-04-25T16:41:16.230Z,1.88
2023-04-25T16:44:18.775Z,1.65
2023-04-25T16:47:22.120Z,1.03
2023-04-25T16:50:24.851Z,1.48
2023-04-25T16:53:27.648Z,2.47
2023-04-25T16:56:30.603Z,0.65
2023-04-25T16:59:33.115Z,2.78
2023-04-25T17:02:36.003Z,2.70
2023-04-25T17:05:38.864Z,3.53
2023-04-25T17:08:42.074Z,5.83
2023-04-25T17:11:44.810Z,4.65
2023-04-25T17:14:48.813Z,4.80
2023-04-25T17:17:51.942Z,4.23
2023-04-25T17:20:55.770Z,3.47
2023-04-25T17:23:59.294Z,4.97
2023-04-25T17:27:02.685Z,6.43
2023-04-25T17:30:07.154Z,4.10
2023-04-25T17:33:11.729Z,2.53
2023-04-25T17:36:15.032Z,1.40
2023-04-25T17:39:18.806Z,3.10
2023-04-25T17:42:21.818Z,1.83
2023-04-25T17:45:24.521Z,0.93
2023-04-25T17:48:27.518Z,1.77
2023-04-25T17:51:30.554Z,3.13
2023-04-25T17:54:33.306Z,3.22
2023-04-25T17:57:36.342Z,8.00
2023-04-25T18:00:39.633Z,18.08
2023-04-25T18:03:45.616Z,24.80
2023-04-25T18:06:48.517Z,12.68
2023-04-25T18:09:51.321Z,13.33
2023-04-25T18:12:54.293Z,3.92
2023-04-25T18:15:57.211Z,3.67
2023-04-25T18:19:05.327Z,3.70
2023-04-25T18:22:08.513Z,5.97
2023-04-25T18:25:12.067Z,7.82
2023-04-25T18:28:15.342Z,4.63
2023-04-25T18:31:22.874Z,3.50
2023-04-25T18:34:27.613Z,3.40
2023-04-25T18:37:30.635Z,3.00
2023-04-25T18:40:35.175Z,5.63
2023-04-25T18:43:40.436Z,3.22
2023-04-25T18:46:45.736Z,4.57
2023-04-25T18:49:50.823Z,3.13
2023-04-25T18:52:54.397Z,2.80
2023-04-25T18:55:57.207Z,4.32
2023-04-25T18:59:00.651Z,5.75
2023-04-25T19:02:05.492Z,5.20
2023-04-25T19:05:10.578Z,6.80
2023-04-25T19:08:12.995Z,3.45
2023-04-25T19:14:23.253Z,5.35
2023-04-25T19:17:27.345Z,3.03
2023-04-25T19:20:31.664Z,4.13
2023-04-25T19:23:35.144Z,1.90
2023-04-25T19:26:38.185Z,2.55
2023-04-25T19:29:46.305Z,3.95
2023-04-25T19:32:49.101Z,14.23
2023-04-25T19:35:52.549Z,10.40
2023-04-25T19:38:55.027Z,7.60
2023-04-25T19:41:58.411Z,5.17
2023-04-25T19:45:01.712Z,7.05
2023-04-25T19:48:04.945Z,6.13
2023-04-25T19:51:09.172Z,2.77
2023-04-25T19:54:12.016Z,2.20
2023-04-25T19:57:14.879Z,1.33
2023-04-25T20:00:19.929Z,3.15
2023-04-25T20:03:23.433Z,3.53
2023-04-25T20:06:27.398Z,2.40
2023-04-25T20:09:30.106Z,2.97
2023-04-25T20:12:33.298Z,3.27
2023-04-25T20:15:37.139Z,2.03
2023-04-25T20:18:40.064Z,2.22
2023-04-25T20:21:42.918Z,1.90
2023-04-25T20:24:45.472Z,2.60
2023-04-25T20:27:48.599Z,2.92
2023-04-25T20:30:52.053Z,4.00
2023-04-25T20:33:54.719Z,4.90
2023-04-25T20:36:58.061Z,3.95
2023-04-25T20:40:01.846Z,2.78
2023-04-25T20:43:05.797Z,1.73
2023-04-25T20:46:08.810Z,2.67
2023-04-25T20:49:11.421Z,3.83
2023-04-25T20:52:14.299Z,2.27
2023-04-25T20:55:17.040Z,2.53
2023-04-25T20:58:20.638Z,2.13
2023-04-25T21:01:24.368Z,4.50
2023-04-25T21:04:27.502Z,3.70
2023-04-25T21:07:30.312Z,2.83
2023-04-25T21:10:34.083Z,1.98
2023-04-25T21:13:38.654Z,2.83
2023-04-25T21:16:42.698Z,4.60
2023-04-25T21:19:45.598Z,4.88
2023-04-25T21:22:51.977Z,3.93
2023-04-25T21:25:56.759Z,3.55
2023-04-25T21:28:59.397Z,2.95
2023-04-25T21:32:02.815Z,2.75
2023-04-25T21:35:05.586Z,2.55
2023-04-25T21:38:08.281Z,1.98
2023-04-25T21:41:10.816Z,3.53
2023-04-25T21:44:14.881Z,3.10
2023-04-25T21:47:17.853Z,2.95
2023-04-25T21:50:21.123Z,2.95
2023-04-25T21:53:24.964Z,2.43
2023-04-25T21:56:27.579Z,6.50
2023-04-25T21:59:30.483Z,4.30
2023-04-25T22:02:33.497Z,4.43
2023-04-25T22:05:37.063Z,2.55
2023-04-25T22:08:40.014Z,3.10
2023-04-25T22:11:43.210Z,2.50
2023-04-25T22:14:46.218Z,3.37
2023-04-25T22:17:49.192Z,3.90
2023-04-25T22:20:52.136Z,2.00
2023-04-25T22:23:56.709Z,6.43
2023-04-25T22:26:59.667Z,5.00
2023-04-25T22:30:02.289Z,4.70
2023-04-25T22:33:05.421Z,3.55
2023-04-25T22:36:08.960Z,2.45
2023-04-25T22:39:11.997Z,4.80
2023-04-25T22:42:14.954Z,2.35
2023-04-25T22:45:17.732Z,3.00
2023-04-25T22:48:20.729Z,2.03
2023-04-25T22:51:23.541Z,2.50
2023-04-25T22:54:26.197Z,3.00
2023-04-25T22:57:29.554Z,3.55
2023-04-25T23:00:34.346Z,3.20
2023-04-25T23:03:37.575Z,4.72
2023-04-25T23:06:40.388Z,3.25
2023-04-25T23:09:45.326Z,4.38
2023-04-25T23:12:47.955Z,4.03
2023-04-25T23:15:50.976Z,3.03
2023-04-25T23:18:54.274Z,2.10
2023-04-25T23:21:57.675Z,4.40
2023-04-25T23:25:01.043Z,3.10
2023-04-25T23:28:03.788Z,4.68
2023-04-25T23:31:10.556Z,3.28
2023-04-25T23:34:13.805Z,1.63
2023-04-25T23:37:16.509Z,3.47
2023-04-25T23:40:19.767Z,3.55
2023-04-25T23:43:22.531Z,2.30
2023-04-25T23:46:26.058Z,1.93
2023-04-25T23:49:29.162Z,2.08
2023-04-25T23:52:32.150Z,2.15
2023-04-25T23:55:35.018Z,2.90
2023-04-25T23:58:37.664Z,2.78
